Djokele Airport


Codes: FZBL/
Name: Djokele Airport
City: Djokele
Country: Congo [DRC]
Elevation: 1007 ft.

Photos at Djokele Airport


   Photos courtesy of SpottingLog. You can add your own sightings and photos by signing up for a free trial today.



No photos found.

Weather at Djokele Airport


Time (UTC)DescriptionTempratureWindCloud coverageVisibilityPressureHumidity
21-Jun-2024 12:00Broken Clouds39°C4 mph, SE70%10000m1008hPa19%
21-Jun-2024 15:00Broken Clouds38°C4 mph, SE66%10000m1007hPa20%
21-Jun-2024 18:00Broken Clouds34°C2 mph, SE67%10000m1008hPa27%
21-Jun-2024 21:00Overcast Clouds30°C0 mph, N90%10000m1009hPa32%
22-Jun-2024 00:00Broken Clouds27°C0 mph, SW65%10000m1008hPa37%
22-Jun-2024 03:00Broken Clouds26°C4 mph, SW75%10000m1008hPa40%
22-Jun-2024 06:00Broken Clouds27°C2 mph, W76%10000m1010hPa44%
22-Jun-2024 09:00Broken Clouds33°C4 mph, SW59%10000m1011hPa33%
22-Jun-2024 12:00Broken Clouds40°C2 mph, S67%10000m1008hPa22%
22-Jun-2024 15:00Overcast Clouds35°C4 mph, E97%10000m1007hPa27%
22-Jun-2024 18:00Broken Clouds30°C2 mph, E68%10000m1008hPa34%
22-Jun-2024 21:00Clear Sky28°C2 mph, NW5%10000m1009hPa40%
23-Jun-2024 00:00Clear Sky26°C4 mph, SW3%10000m1009hPa47%
23-Jun-2024 03:00Clear Sky24°C2 mph, W8%10000m1009hPa55%
23-Jun-2024 06:00Few Clouds25°C0 mph, SW12%10000m1012hPa55%
23-Jun-2024 09:00Broken Clouds33°C4 mph, W65%10000m1012hPa35%
23-Jun-2024 12:00Broken Clouds39°C2 mph, SW71%10000m1008hPa24%
23-Jun-2024 15:00Overcast Clouds37°C2 mph, SE100%10000m1006hPa25%
23-Jun-2024 18:00Broken Clouds31°C2 mph, SE83%10000m1008hPa36%
23-Jun-2024 21:00Clear Sky29°C0 mph, E10%10000m1009hPa39%
24-Jun-2024 00:00Few Clouds26°C2 mph, W19%10000m1009hPa48%
24-Jun-2024 03:00Scattered Clouds25°C4 mph, W29%10000m1009hPa53%
24-Jun-2024 06:00Scattered Clouds26°C4 mph, W36%10000m1011hPa50%
24-Jun-2024 09:00Broken Clouds34°C7 mph, W83%10000m1011hPa31%
24-Jun-2024 12:00Broken Clouds39°C2 mph, SW79%10000m1007hPa24%
24-Jun-2024 15:00Overcast Clouds37°C4 mph, SE99%10000m1005hPa25%
24-Jun-2024 18:00Overcast Clouds31°C2 mph, SE98%10000m1007hPa37%
24-Jun-2024 21:00Broken Clouds29°C2 mph, NW82%10000m1009hPa41%
25-Jun-2024 00:00Overcast Clouds28°C2 mph, NW91%10000m1009hPa48%
25-Jun-2024 03:00Overcast Clouds26°C4 mph, NW98%10000m1010hPa60%
25-Jun-2024 06:00Overcast Clouds26°C4 mph, NW85%10000m1011hPa69%
25-Jun-2024 09:00Overcast Clouds33°C2 mph, NW94%10000m1012hPa46%
25-Jun-2024 12:00Overcast Clouds37°C2 mph, NW94%10000m1008hPa33%
25-Jun-2024 15:00Overcast Clouds32°C4 mph, NW100%10000m1007hPa45%
25-Jun-2024 18:00Overcast Clouds30°C2 mph, NE100%10000m1008hPa51%
25-Jun-2024 21:00Broken Clouds27°C2 mph, NW73%10000m1009hPa60%
26-Jun-2024 00:00Scattered Clouds25°C2 mph, W44%10000m1009hPa66%
26-Jun-2024 03:00Scattered Clouds24°C4 mph, NW34%10000m1008hPa69%
26-Jun-2024 06:00Few Clouds26°C2 mph, W20%10000m1010hPa65%
26-Jun-2024 09:00Clear Sky34°C4 mph, W2%10000m1010hPa40%